Batesville, AR

4:59 PM CST on December 02, 2016 (GMT -0600)
Clearview Estates | | Change Station

Elev 531 ft 35.74 °N, 91.65 °W | Updated 8 seconds ago

Clear
Clear
54.9 °F
Feels Like 54.9 °F
N
0.2
Wind Variable Wind from ENE
Gusts 2.5 mph

Today
High -- | Low -- °F
--% Chance of Precip.
Yesterday
High -- | Low -- °F
Precip. -- in
Pressure 30.26 in
Visibility 10.0 miles
Clouds Clear
Dew Point 40 °F
Humidity 57%
Rainfall 0.00 in
Snow Depth Not available.
6:59 AM 4:52 PM
Waxing Crescent, 11% visible
METAR KBVX 022255Z AUTO 10006KT 10SM CLR 12/02 A3026 RMK AO1
Pressure 30.26 in
Visibility 10.0 miles
Clouds Clear
Dew Point 40 °F
Humidity 57%
Rainfall 0.00 in
Snow Depth Not available.
6:59 AM 4:52 PM
Waxing Crescent, 11% visible
METAR KBVX 022255Z AUTO 10006KT 10SM CLR 12/02 A3026 RMK AO1

10-Day Weather Forecast

Almanac

Astronomy

Dec. 02, 2016 Rise Set
Actual Time
Civil Twilight
Nautical Twilight
Astronomical Twilight
Moon
Length of Visible Light
Length of Day
Tomorrow will be .
, % of the Moon is Illuminated

Today's Extremes

State Highs State Lows

Community

WunderPhotos

Upload Photos

1,955,368 photos uploaded!

WunderBlog® & News

Nearby

Air Quality

  Air Quality AQ Index Pollutant
Not available.

Snow Depth

Station Depth Elevation

Earthquake Activity

City Distance Mag. Time & Date
Minimum magnitude displayed is 2.5.

Coastal Water Temperatures

Place Temperature

Stations

Nearby Weather Stations

Station Location Temp. Windchill Dew Point Humidity Wind Precip. Elev Updated Type
                   

Watches & Warnings

There are currently no watches in effect.